createdAt,value
2018-04-19T03:14:15.029Z,8
2018-04-19T03:15:25.047Z,4
2018-04-19T03:16:35.057Z,8
2018-04-19T03:17:44.814Z,8
2018-04-19T03:18:54.827Z,12
2018-04-19T03:20:04.575Z,12
2018-04-19T03:21:14.314Z,12
2018-04-19T03:22:24.320Z,16
2018-04-19T03:23:33.790Z,20
2018-04-19T03:24:42.988Z,24
2018-04-19T03:25:51.924Z,24
2018-04-19T03:27:01.926Z,24
2018-04-19T03:28:10.861Z,28
2018-04-19T03:29:20.871Z,36
2018-04-19T03:30:30.893Z,40
2018-04-19T03:31:40.425Z,44
2018-04-19T03:32:50.179Z,48
2018-04-19T03:33:59.925Z,52
2018-04-19T03:35:09.140Z,60
2018-04-19T03:36:19.142Z,68
2018-04-19T03:37:29.138Z,72
2018-04-19T03:38:38.872Z,80
2018-04-19T03:39:48.627Z,88
2018-04-19T03:40:58.644Z,96
2018-04-19T03:42:08.649Z,100
2018-04-19T03:43:18.117Z,108
2018-04-19T03:44:27.852Z,116
2018-04-19T03:45:37.856Z,128
2018-04-19T03:46:47.867Z,136
2018-04-19T03:47:57.605Z,144
2018-04-19T03:49:07.350Z,156
2018-04-19T03:50:17.351Z,164
2018-04-19T03:51:27.093Z,176
2018-04-19T03:52:36.577Z,184
2018-04-19T03:53:46.308Z,196
2018-04-19T03:54:56.420Z,212
2018-04-19T03:56:06.152Z,224
2018-04-19T03:57:15.622Z,244
2018-04-19T03:58:25.625Z,260
2018-04-19T03:59:35.628Z,280
2018-04-19T04:00:45.629Z,304
2018-04-19T04:01:55.364Z,324
2018-04-19T04:03:05.103Z,344
2018-04-19T04:04:14.859Z,360
2018-04-19T04:05:24.601Z,388
2018-04-19T04:06:34.603Z,408
2018-04-19T04:07:44.082Z,432
2018-04-19T04:08:53.944Z,460
2018-04-19T04:10:03.704Z,480
2018-04-19T04:11:13.714Z,504
2018-04-19T04:12:23.201Z,532
2018-04-19T04:13:33.206Z,560
2018-04-19T04:14:43.205Z,592
2018-04-19T04:15:53.210Z,616
2018-04-19T04:17:03.214Z,644
2018-04-19T04:18:12.677Z,668
2018-04-19T04:19:22.680Z,692
2018-04-19T04:20:32.679Z,728
2018-04-19T04:21:42.416Z,776
2018-04-19T04:22:52.431Z,828
2018-04-19T04:24:01.905Z,872
2018-04-19T04:25:11.378Z,896
2018-04-19T04:26:21.110Z,908
2018-04-19T04:27:31.115Z,924
2018-04-19T04:28:41.147Z,940
2018-04-19T04:29:51.151Z,952
2018-04-19T04:31:01.163Z,964
2018-04-19T04:32:10.946Z,964
2018-04-19T04:33:20.945Z,968
2018-04-19T04:34:30.679Z,984
2018-04-19T04:35:40.417Z,1016
2018-04-19T04:36:50.151Z,1060
2018-04-19T04:37:59.890Z,1108
2018-04-19T04:39:09.898Z,1152
2018-04-19T04:40:19.900Z,1200
2018-04-19T04:41:30.003Z,1244
2018-04-19T04:42:40.019Z,1284
2018-04-19T04:43:50.033Z,1328
2018-04-19T04:45:00.033Z,1372
2018-04-19T04:46:09.776Z,1424
2018-04-19T04:47:19.779Z,1472
2018-04-19T04:48:29.791Z,1524
2018-04-19T04:49:39.529Z,1588
2018-04-19T04:50:49.011Z,1664
2018-04-19T04:51:59.033Z,1748
2018-04-19T04:53:08.508Z,1816
2018-04-19T04:54:18.249Z,1876
2018-04-19T04:55:28.263Z,1928
2018-04-19T04:56:37.997Z,1988
2018-04-19T04:57:47.740Z,2052
2018-04-19T04:58:57.489Z,2124
2018-04-19T05:00:07.314Z,2176
2018-04-19T05:01:16.793Z,2216
2018-04-19T05:02:26.259Z,2252
2018-04-19T05:03:36.009Z,2312
2018-04-19T05:04:45.214Z,2412
2018-04-19T05:05:55.292Z,2520
2018-04-19T05:07:05.312Z,2652
2018-04-19T05:08:15.056Z,2748
2018-04-19T05:09:24.795Z,2804
2018-04-19T05:10:34.531Z,2856
2018-04-19T05:11:44.264Z,2924
2018-04-19T05:12:53.733Z,3032
2018-04-19T05:14:03.480Z,3172
2018-04-19T05:15:13.232Z,3332
2018-04-19T05:16:22.964Z,3508
2018-04-19T05:17:32.972Z,3700
2018-04-19T05:18:42.739Z,3904
2018-04-19T05:19:52.205Z,4124
2018-04-19T05:21:01.947Z,4368
2018-04-19T05:22:11.687Z,4520
2018-04-19T05:23:21.424Z,4580
2018-04-19T05:24:31.428Z,4588
2018-04-19T05:25:41.164Z,4576
2018-04-19T05:26:51.162Z,4552
2018-04-19T05:28:01.176Z,4524
2018-04-19T05:29:10.918Z,4540
2018-04-19T05:30:20.935Z,4620
2018-04-19T05:31:30.678Z,4708
2018-04-19T05:32:40.686Z,4800
2018-04-19T05:33:50.154Z,4936
2018-04-19T05:34:59.885Z,5056
2018-04-19T05:36:09.091Z,5140
2018-04-19T05:37:17.761Z,5200
2018-04-19T05:38:27.544Z,5224
2018-04-19T05:39:37.298Z,5356
2018-04-19T05:40:46.772Z,5544
2018-04-19T05:41:56.530Z,5708
2018-04-19T05:43:06.550Z,5728
2018-04-19T05:44:16.607Z,5704
2018-04-19T05:45:26.416Z,5688
2018-04-19T05:46:36.167Z,5720
2018-04-19T05:47:46.176Z,5876
2018-04-19T05:48:55.648Z,5944
2018-04-19T05:50:05.386Z,5948
2018-04-19T05:51:15.123Z,5900
2018-04-19T05:52:24.860Z,5932
2018-04-19T05:53:34.606Z,6016
2018-04-19T05:54:44.610Z,6132
2018-04-19T05:55:54.614Z,6244
2018-04-19T05:57:04.353Z,6372
2018-04-19T05:58:13.822Z,6484
2018-04-19T05:59:23.292Z,6600
2018-04-19T06:00:33.304Z,6672
2018-04-19T06:01:43.309Z,6804
2018-04-19T06:02:53.046Z,6948
2018-04-19T06:04:03.065Z,7068
2018-04-19T06:05:12.805Z,7228
2018-04-19T06:06:22.817Z,7368
2018-04-19T06:07:32.554Z,7484
2018-04-19T06:08:42.856Z,7568
2018-04-19T06:09:52.617Z,7564
2018-04-19T06:11:02.353Z,7672
2018-04-19T06:12:12.357Z,7820
2018-04-19T06:13:22.101Z,8024
2018-04-19T06:14:32.123Z,8080
2018-04-19T06:15:41.863Z,8032
2018-04-19T06:16:51.866Z,8020
2018-04-19T06:18:01.615Z,7964
2018-04-19T06:19:11.628Z,7816
2018-04-19T06:20:21.367Z,7648
2018-04-19T06:21:30.839Z,7468
2018-04-19T06:22:40.847Z,7400
2018-04-19T06:23:50.597Z,7428
2018-04-19T06:25:00.203Z,7428
2018-04-19T06:26:09.622Z,7412
2018-04-19T06:27:19.635Z,7460
2018-04-19T06:28:29.385Z,7588
2018-04-19T06:29:38.860Z,7788
2018-04-19T06:30:48.611Z,8024
2018-04-19T06:31:58.891Z,8288
2018-04-19T06:33:08.914Z,8372
2018-04-19T06:34:18.651Z,8452
2018-04-19T06:35:28.667Z,8584
2018-04-19T06:36:38.676Z,8676
2018-04-19T06:37:48.684Z,8720
2018-04-19T06:38:58.427Z,8764
2018-04-19T06:40:08.178Z,8684
2018-04-19T06:41:17.912Z,8612
2018-04-19T06:42:27.926Z,8620
2018-04-19T06:43:37.949Z,8652
2018-04-19T06:44:47.424Z,8780
2018-04-19T06:45:57.163Z,8888
2018-04-19T06:47:07.168Z,8928
2018-04-19T06:48:17.175Z,8928
2018-04-19T06:49:26.927Z,8900
2018-04-19T06:50:36.934Z,8980
2018-04-19T06:51:46.674Z,9224
2018-04-19T06:52:56.417Z,9464
2018-04-19T06:54:06.158Z,9616
2018-04-19T06:55:15.629Z,9612
2018-04-19T06:56:25.373Z,9480
2018-04-19T06:57:35.123Z,9396
2018-04-19T06:58:44.591Z,9300
2018-04-19T06:59:54.326Z,9184
2018-04-19T07:01:03.935Z,9124
2018-04-19T07:02:14.062Z,9096
2018-04-19T07:03:24.077Z,8984
2018-04-19T07:04:33.603Z,8920
2018-04-19T07:05:43.609Z,8988
2018-04-19T07:06:53.716Z,9152
2018-04-19T07:08:02.926Z,9292
2018-04-19T07:09:12.676Z,9420
2018-04-19T07:10:22.410Z,9584
2018-04-19T07:11:31.889Z,9732
2018-04-19T07:12:41.645Z,10072
2018-04-19T07:13:51.128Z,10588
2018-04-19T07:15:01.133Z,10968
2018-04-19T07:16:10.880Z,11220
2018-04-19T07:17:20.352Z,11260
2018-04-19T07:18:30.096Z,11272
2018-04-19T07:19:39.843Z,11368
2018-04-19T07:20:49.859Z,11544
2018-04-19T07:21:59.605Z,11620
2018-04-19T07:23:09.092Z,11692
2018-04-19T07:24:18.574Z,11704
2018-04-19T07:25:28.311Z,11752
2018-04-19T07:26:37.521Z,11796
2018-04-19T07:27:47.535Z,11880
2018-04-19T07:28:57.275Z,11964
2018-04-19T07:30:07.389Z,12100
2018-04-19T07:31:16.865Z,12112
2018-04-19T07:32:26.503Z,12040
2018-04-19T07:33:36.257Z,12024
2018-04-19T07:34:46.030Z,12032
2018-04-19T07:35:55.782Z,11952
2018-04-19T07:37:05.521Z,11784
2018-04-19T07:38:15.259Z,11864
2018-04-19T07:39:24.999Z,12184
2018-04-19T07:40:34.737Z,12580
2018-04-19T07:41:44.745Z,12772
2018-04-19T07:42:54.484Z,12912
2018-04-19T07:44:04.497Z,13024
2018-04-19T07:45:14.235Z,13104
2018-04-19T07:46:24.235Z,13228
2018-04-19T07:47:33.972Z,13488
2018-04-19T07:48:44.005Z,13268
2018-04-19T07:49:54.020Z,13088
2018-04-19T07:51:03.762Z,12836
2018-04-19T07:52:12.965Z,12596
2018-04-19T07:53:22.975Z,12444
2018-04-19T07:54:32.724Z,12316
2018-04-19T07:55:42.740Z,12144
2018-04-19T07:56:52.498Z,12128
2018-04-19T07:58:02.732Z,12248
2018-04-19T07:59:12.743Z,12760
2018-04-19T08:00:22.485Z,13212
2018-04-19T08:01:31.691Z,13352
2018-04-19T08:02:41.707Z,13452
2018-04-19T08:03:51.463Z,13600
2018-04-19T08:05:01.215Z,13472
2018-04-19T08:06:10.687Z,13040
2018-04-19T08:07:20.425Z,12736
2018-04-19T08:08:30.435Z,12784
2018-04-19T08:09:40.443Z,12932
2018-04-19T08:10:50.493Z,13012
2018-04-19T08:12:00.535Z,12904
2018-04-19T08:13:10.597Z,13336
2018-04-19T08:14:20.339Z,14100
2018-04-19T08:15:30.072Z,14852
2018-04-19T08:16:39.817Z,14968
2018-04-19T08:17:49.560Z,14604
2018-04-19T08:18:59.789Z,15000
2018-04-19T08:20:09.004Z,15148
2018-04-19T08:21:18.746Z,15016
2018-04-19T08:22:28.489Z,14672
2018-04-19T08:23:38.236Z,14644
2018-04-19T08:24:47.709Z,13848
2018-04-19T08:25:57.714Z,13468
2018-04-19T08:27:07.467Z,13572
2018-04-19T08:28:17.476Z,13644
2018-04-19T08:29:27.224Z,14080
2018-04-19T08:30:36.442Z,14452
2018-04-19T08:31:46.198Z,14472
2018-04-19T08:32:55.946Z,14416
2018-04-19T08:34:05.783Z,14084
2018-04-19T08:35:15.310Z,13836
2018-04-19T08:36:25.064Z,13704
2018-04-19T08:37:34.801Z,13828
2018-04-19T08:38:44.588Z,13700
2018-04-19T08:39:54.610Z,13740
2018-04-19T08:41:04.082Z,15116
2018-04-19T08:42:13.827Z,15684
2018-04-19T08:43:23.298Z,16236
2018-04-19T08:44:32.824Z,15936
2018-04-19T08:45:42.959Z,14912
2018-04-19T08:46:52.977Z,14204
2018-04-19T08:48:02.721Z,13332
2018-04-19T08:49:12.466Z,13096
2018-04-19T08:50:22.658Z,13284
2018-04-19T08:51:32.398Z,14092
2018-04-19T08:52:42.412Z,14280
2018-04-19T08:53:52.427Z,14412
2018-04-19T08:55:01.909Z,15268
2018-04-19T08:56:11.655Z,17472
2018-04-19T08:57:21.133Z,15536
2018-04-19T08:58:31.142Z,16044
2018-04-19T08:59:40.880Z,15260
2018-04-19T09:00:50.626Z,15408
2018-04-19T09:02:00.385Z,14316
2018-04-19T09:03:10.176Z,14112
2018-04-19T09:04:19.919Z,14336
2018-04-19T09:05:29.664Z,14060
2018-04-19T09:06:39.401Z,15780
2018-04-19T09:07:49.139Z,14980
2018-04-19T09:08:58.937Z,14708
2018-04-19T09:10:08.148Z,14436
2018-04-19T09:11:17.937Z,14136
2018-04-19T09:12:27.411Z,14240
2018-04-19T09:13:37.295Z,14616
2018-04-19T09:14:47.373Z,15120
2018-04-19T09:15:57.115Z,14408
2018-04-19T09:17:06.868Z,13436
2018-04-19T09:18:16.884Z,13036
2018-04-19T09:19:26.630Z,12792
2018-04-19T09:20:36.408Z,12944
2018-04-19T09:21:45.885Z,13388
2018-04-19T09:22:55.896Z,14144
2018-04-19T09:24:05.634Z,15092
2018-04-19T09:25:15.379Z,16060
2018-04-19T09:26:25.120Z,16816
2018-04-19T09:27:35.129Z,17312
2018-04-19T09:28:44.600Z,17012
2018-04-19T09:29:54.619Z,17036
2018-04-19T09:31:04.628Z,17568
2018-04-19T09:32:14.374Z,17112
2018-04-19T09:33:23.891Z,17064
2018-04-19T09:34:33.370Z,16288
2018-04-19T09:35:43.117Z,15964
2018-04-19T09:36:53.126Z,15592
2018-04-19T09:38:03.234Z,15740
2018-04-19T09:39:12.974Z,16128
2018-04-19T09:40:22.721Z,15984
2018-04-19T09:41:32.729Z,16304
2018-04-19T09:42:41.980Z,16224
2018-04-19T09:43:51.994Z,16544
2018-04-19T09:45:02.059Z,16548
2018-04-19T09:46:12.074Z,16720
2018-04-19T09:47:22.079Z,16600
2018-04-19T09:48:32.093Z,16708
2018-04-19T09:49:41.305Z,16640
2018-04-19T09:50:51.047Z,16368
2018-04-19T09:52:01.260Z,16372
2018-04-19T09:53:11.006Z,16384
2018-04-19T09:54:21.010Z,16704
2018-04-19T09:55:31.019Z,16968
2018-04-19T09:56:41.030Z,17632
2018-04-19T09:57:50.507Z,18048
2018-04-19T09:59:00.247Z,19008
2018-04-19T10:00:09.987Z,18944
2018-04-19T10:01:20.008Z,18592
2018-04-19T10:02:30.188Z,18208
2018-04-19T10:03:39.948Z,17664
2018-04-19T10:04:49.697Z,17600
2018-04-19T10:05:59.441Z,17568
2018-04-19T10:07:09.034Z,17568
2018-04-19T10:08:18.508Z,17696
2018-04-19T10:09:27.990Z,17728
2018-04-19T10:10:38.126Z,18624
2018-04-19T10:11:47.874Z,19200
2018-04-19T10:12:57.614Z,19680
2018-04-19T10:14:07.629Z,19584
2018-04-19T10:15:17.673Z,19296
2018-04-19T10:16:27.424Z,19616
2018-04-19T10:17:37.433Z,20384
2018-04-19T10:18:47.193Z,21632
2018-04-19T10:19:57.206Z,22304
2018-04-19T10:21:06.700Z,21280
2018-04-19T10:22:16.461Z,21408
2018-04-19T10:23:26.205Z,19680
2018-04-19T10:24:35.734Z,20224
2018-04-19T10:25:45.814Z,19840
2018-04-19T10:26:55.561Z,19104
2018-04-19T10:28:05.576Z,18208
2018-04-19T10:29:15.323Z,18016
2018-04-19T10:30:24.794Z,18208
2018-04-19T10:31:34.816Z,18304
2018-04-19T10:32:44.301Z,18240
2018-04-19T10:33:54.249Z,17888
2018-04-19T10:35:03.740Z,17248
2018-04-19T10:36:13.746Z,16192
2018-04-19T10:37:23.543Z,15348
2018-04-19T10:38:33.023Z,15596
2018-04-19T10:39:42.774Z,15920
2018-04-19T10:40:52.519Z,16472
2018-04-19T10:42:02.099Z,17020
2018-04-19T10:43:11.850Z,17536
2018-04-19T10:44:21.595Z,17920
2018-04-19T10:45:31.065Z,18464
2018-04-19T10:46:40.809Z,18432
2018-04-19T10:47:50.020Z,18624
2018-04-19T10:49:00.085Z,19456
2018-04-19T10:50:09.855Z,20160
2018-04-19T10:51:19.593Z,20416
2018-04-19T10:52:29.612Z,20320
2018-04-19T10:53:38.833Z,20608
2018-04-19T10:54:48.844Z,20544
2018-04-19T10:55:58.601Z,20832
2018-04-19T10:57:08.080Z,20288
2018-04-19T10:58:18.091Z,20256
2018-04-19T10:59:27.836Z,20512
2018-04-19T11:00:37.590Z,20544
2018-04-19T11:01:47.607Z,20960
2018-04-19T11:02:57.094Z,20544
2018-04-19T11:04:06.572Z,20480
2018-04-19T11:05:16.321Z,20288
2018-04-19T11:06:26.068Z,20160
2018-04-19T11:07:35.818Z,20000
2018-04-19T11:08:45.998Z,19872
2018-04-19T11:09:55.755Z,19360
2018-04-19T11:11:05.512Z,18848
2018-04-19T11:12:15.532Z,18592
2018-04-19T11:13:25.551Z,18528
2018-04-19T11:14:35.564Z,18112
2018-04-19T11:15:44.771Z,18528
2018-04-19T11:16:54.518Z,18976
2018-04-19T11:18:04.262Z,19552
2018-04-19T11:19:14.016Z,22144
2018-04-19T11:20:24.026Z,53888
2018-04-19T11:21:33.501Z,81408
2018-04-19T11:22:43.608Z,78848
2018-04-19T11:23:53.357Z,76000
2018-04-19T11:25:03.103Z,65856
2018-04-19T11:26:12.850Z,69056
2018-04-19T11:27:22.864Z,70368
2018-04-19T11:28:32.982Z,76928
2018-04-19T11:29:42.725Z,82016
2018-04-19T11:30:52.753Z,80192
2018-04-19T11:32:02.511Z,71136
2018-04-19T11:33:12.263Z,59968
2018-04-19T11:34:22.015Z,53792
2018-04-19T11:35:31.764Z,55872
2018-04-19T11:36:41.332Z,55520
2018-04-19T11:37:51.472Z,53984
2018-04-19T11:39:01.485Z,47584
2018-04-19T11:40:10.972Z,64736
2018-04-19T11:41:20.986Z,64480
2018-04-19T11:42:30.798Z,65856
2018-04-19T11:43:40.910Z,69472
2018-04-19T11:44:50.130Z,66336
2018-04-19T11:45:59.623Z,59840
2018-04-19T11:47:09.378Z,54560
2018-04-19T11:48:18.863Z,55264
2018-04-19T11:49:28.617Z,54016
2018-04-19T11:50:38.367Z,52384
2018-04-19T11:51:48.382Z,52320
2018-04-19T11:52:58.403Z,58400
2018-04-19T11:54:08.167Z,51968
2018-04-19T11:55:18.193Z,40608
2018-04-19T11:56:27.949Z,42528
2018-04-19T11:57:37.719Z,29920
2018-04-19T11:58:47.747Z,44416
2018-04-19T11:59:57.505Z,23104
2018-04-19T12:01:07.662Z,36928
2018-04-19T12:02:17.332Z,59520
2018-04-19T12:03:27.118Z,67488
2018-04-19T12:04:37.144Z,76224
2018-04-19T12:05:46.917Z,74048
2018-04-19T12:06:56.674Z,79008
2018-04-19T12:08:06.695Z,77120
2018-04-19T12:09:16.514Z,76832
2018-04-19T12:10:26.563Z,58528
2018-04-19T12:11:36.634Z,73120
2018-04-19T12:12:46.389Z,75104
2018-04-19T12:13:56.145Z,76256
2018-04-19T12:15:05.912Z,29824
2018-04-19T12:16:15.413Z,75360
2018-04-19T12:17:25.166Z,73952
2018-04-19T12:18:34.926Z,76320
2018-04-19T12:19:44.680Z,74944
2018-04-19T12:20:54.170Z,78688
2018-04-19T12:22:04.201Z,78688
2018-04-19T12:23:13.961Z,73792
2018-04-19T12:24:23.720Z,77088
2018-04-19T12:25:33.477Z,78848
2018-04-19T12:26:43.502Z,76416
2018-04-19T12:27:53.528Z,77696
2018-04-19T12:29:03.287Z,79328
2018-04-19T12:30:12.775Z,63904
2018-04-19T12:31:22.802Z,67616
2018-04-19T12:32:32.955Z,65024
2018-04-19T12:33:42.724Z,75040
2018-04-19T12:34:52.753Z,74592
2018-04-19T12:36:02.508Z,72544
2018-04-19T12:37:12.274Z,71264
2018-04-19T12:38:22.299Z,70144
2018-04-19T12:39:32.322Z,74816
2018-04-19T12:40:42.079Z,74560
2018-04-19T12:41:51.844Z,70272
2018-04-19T12:43:01.876Z,67008
2018-04-19T12:44:11.909Z,72992
2018-04-19T12:45:21.940Z,73888
2018-04-19T12:46:31.428Z,70080
2018-04-19T12:47:41.199Z,68832
2018-04-19T12:48:51.241Z,72448
2018-04-19T12:50:01.282Z,72672
2018-04-19T12:51:11.043Z,68640
2018-04-19T12:52:20.806Z,59424
2018-04-19T12:53:30.849Z,76736
2018-04-19T12:54:40.606Z,79296
2018-04-19T12:55:50.378Z,78048
2018-04-19T12:57:00.405Z,78720
2018-04-19T12:58:10.430Z,79520
2018-04-19T12:59:20.183Z,79488
2018-04-19T13:00:30.215Z,74976
2018-04-19T13:01:39.439Z,77568
2018-04-19T13:02:48.934Z,79744
2018-04-19T13:03:58.962Z,78720
2018-04-19T13:05:09.021Z,63264
2018-04-19T13:06:18.523Z,54304
2018-04-19T13:07:28.650Z,62784
2018-04-19T13:08:38.678Z,74784
2018-04-19T13:09:48.761Z,70432
2018-04-19T13:10:58.792Z,82368
2018-04-19T13:12:08.283Z,80704
2018-04-19T13:13:18.056Z,75712
2018-04-19T13:14:27.822Z,79136
2018-04-19T13:15:37.598Z,78208
2018-04-19T13:16:47.093Z,75168
2018-04-19T13:17:56.850Z,67776
2018-04-19T13:19:06.937Z,70304
2018-04-19T13:20:16.702Z,71360
2018-04-19T13:21:26.460Z,60928
2018-04-19T13:22:36.491Z,55616
2018-04-19T13:23:46.512Z,52512
2018-04-19T13:24:56.329Z,56672
2018-04-19T13:26:06.086Z,62816
2018-04-19T13:27:16.118Z,58688
2018-04-19T13:28:25.887Z,67648
2018-04-19T13:29:35.650Z,65952
2018-04-19T13:30:45.685Z,67360
2018-04-19T13:31:55.488Z,68736
2018-04-19T13:33:05.514Z,68800
2018-04-19T13:34:15.277Z,64832
2018-04-19T13:35:25.045Z,60576
2018-04-19T13:36:34.925Z,62624
2018-04-19T13:37:44.955Z,65472
2018-04-19T13:38:54.717Z,61504
2018-04-19T13:40:04.218Z,61312
2018-04-19T13:41:13.997Z,69216
2018-04-19T13:42:23.755Z,61664
2018-04-19T13:43:33.249Z,67168
2018-04-19T13:44:43.275Z,62048
2018-04-19T13:45:53.041Z,62400
2018-04-19T13:47:02.814Z,58976
2018-04-19T13:48:12.575Z,58304
2018-04-19T13:49:22.334Z,58496
2018-04-19T13:50:32.094Z,58432
2018-04-19T13:51:41.599Z,65120
2018-04-19T13:52:51.636Z,56576
2018-04-19T13:54:00.858Z,58464
2018-04-19T13:55:10.351Z,61632
2018-04-19T13:56:19.577Z,61024
2018-04-19T13:57:29.335Z,59936
2018-04-19T13:58:39.101Z,55936
2018-04-19T13:59:49.125Z,54304
2018-04-19T14:00:58.674Z,52640
2018-04-19T14:02:09.058Z,46592
2018-04-19T14:03:19.135Z,55360
2018-04-19T14:04:28.894Z,70144
2018-04-19T14:05:38.127Z,70528
2018-04-19T14:06:47.084Z,70912
2018-04-19T14:07:56.847Z,70752
2018-04-19T14:09:06.084Z,77856
2018-04-19T14:10:15.857Z,78592
2018-04-19T14:11:25.886Z,73824
2018-04-19T14:12:35.650Z,76160
2018-04-19T14:13:45.676Z,64832
2018-04-19T14:14:55.438Z,63008
2018-04-19T14:16:05.508Z,65536
2018-04-19T14:17:15.624Z,71648
2018-04-19T14:18:25.660Z,80992
2018-04-19T14:19:35.419Z,73440
2018-04-19T14:20:45.450Z,63680
2018-04-19T14:21:54.944Z,60544
2018-04-19T14:23:04.981Z,57920
2018-04-19T14:24:15.025Z,43136
2018-04-19T14:25:25.053Z,60160
2018-04-19T14:26:34.821Z,30656
2018-04-19T14:27:44.584Z,24064
2018-04-19T14:28:54.346Z,28192
2018-04-19T14:30:04.101Z,30944
2018-04-19T14:31:13.998Z,39328
2018-04-19T14:32:23.836Z,30720
2018-04-19T14:33:33.626Z,25376
2018-04-19T14:34:43.654Z,25056
2018-04-19T14:35:53.676Z,23520
2018-04-19T14:37:03.432Z,18592
2018-04-19T14:38:13.185Z,18304
2018-04-19T14:39:22.945Z,18976
2018-04-19T14:40:32.698Z,20032
2018-04-19T14:41:42.448Z,21696
2018-04-19T14:42:52.206Z,21152
2018-04-19T14:44:02.231Z,24512
2018-04-19T14:45:11.982Z,24704
2018-04-19T14:46:21.831Z,25952
2018-04-19T14:47:31.581Z,25888
2018-04-19T14:48:41.596Z,27328
2018-04-19T14:49:51.073Z,24544
2018-04-19T14:51:00.559Z,24032
2018-04-19T14:52:10.630Z,24384
2018-04-19T14:53:20.385Z,22592
2018-04-19T14:54:30.408Z,20320
2018-04-19T14:55:40.181Z,21888
2018-04-19T14:56:49.931Z,23712
2018-04-19T14:57:59.411Z,21984
2018-04-19T14:59:09.165Z,23712
2018-04-19T15:00:18.913Z,23872
2018-04-19T15:01:28.931Z,23136
2018-04-19T15:02:38.683Z,22496
2018-04-19T15:03:48.707Z,23776
2018-04-19T15:04:58.451Z,21152
2018-04-19T15:06:08.210Z,23488
2018-04-19T15:07:18.222Z,25888
2018-04-19T15:08:27.967Z,25664
2018-04-19T15:09:37.723Z,24480
2018-04-19T15:10:47.747Z,23360
2018-04-19T15:11:57.228Z,24384
2018-04-19T15:13:06.984Z,21920
2018-04-19T15:14:16.737Z,21888
2018-04-19T15:15:26.851Z,20032
2018-04-19T15:16:36.882Z,20128
2018-04-19T15:17:46.912Z,22208
2018-04-19T15:18:56.655Z,20928
2018-04-19T15:20:06.453Z,18336
2018-04-19T15:21:16.473Z,17600
2018-04-19T15:22:26.228Z,17952
2018-04-19T15:23:35.979Z,17664
2018-04-19T15:24:45.990Z,17248
2018-04-19T15:25:55.657Z,16260
2018-04-19T15:27:05.409Z,15424
2018-04-19T15:28:15.420Z,15056
2018-04-19T15:29:25.430Z,14652
2018-04-19T15:30:34.921Z,14524
2018-04-19T15:31:45.226Z,14452
2018-04-19T15:32:55.162Z,14352
2018-04-19T15:34:04.961Z,14352
2018-04-19T15:35:15.307Z,14200
2018-04-19T15:36:25.326Z,13996
2018-04-19T15:37:35.343Z,13852
2018-04-19T15:38:45.518Z,13844
2018-04-19T15:39:55.540Z,14072
2018-04-19T15:41:05.557Z,14300
2018-04-19T15:42:15.570Z,14452
2018-04-19T15:43:25.316Z,14732
2018-04-19T15:44:35.331Z,15068
2018-04-19T15:45:45.342Z,15232
2018-04-19T15:46:55.357Z,14664
2018-04-19T15:48:04.301Z,13824
2018-04-19T15:49:13.782Z,13152
2018-04-19T15:50:23.532Z,12596
2018-04-19T15:51:33.010Z,11964
2018-04-19T15:52:42.760Z,11340
2018-04-19T15:53:52.227Z,11096
2018-04-19T15:55:02.056Z,11020
2018-04-19T15:56:11.898Z,11120
2018-04-19T15:57:21.910Z,11452
2018-04-19T15:58:31.919Z,11744
2018-04-19T15:59:41.658Z,12148
2018-04-19T16:00:50.865Z,12456
2018-04-19T16:02:01.227Z,12828
2018-04-19T16:03:11.544Z,13056
2018-04-19T16:04:21.031Z,13300
2018-04-19T16:05:30.778Z,13360
2018-04-19T16:06:40.524Z,13180
2018-04-19T16:07:50.277Z,12868
2018-04-19T16:09:00.285Z,12408
2018-04-19T16:10:10.027Z,12124
2018-04-19T16:11:20.154Z,12208
2018-04-19T16:12:29.599Z,12368
2018-04-19T16:13:39.339Z,12376
2018-04-19T16:14:49.358Z,12004
2018-04-19T16:15:59.369Z,11316
2018-04-19T16:17:09.449Z,10900
2018-04-19T16:18:19.205Z,10756
2018-04-19T16:19:28.685Z,10604
2018-04-19T16:20:38.440Z,10664
2018-04-19T16:21:48.186Z,10764
2018-04-19T16:22:58.245Z,10644
2018-04-19T16:24:08.339Z,10504
2018-04-19T16:25:18.129Z,10828
2018-04-19T16:26:28.139Z,10516
2018-04-19T16:27:37.885Z,10636
2018-04-19T16:28:56.266Z,10324
2018-04-19T16:30:05.762Z,10592
2018-04-19T16:31:15.521Z,10772
2018-04-19T16:32:25.259Z,10984
2018-04-19T16:33:35.322Z,10824
2018-04-19T16:34:45.075Z,11748
2018-04-19T16:35:54.555Z,11728
2018-04-19T16:37:04.302Z,11796
2018-04-19T16:38:13.513Z,13556
2018-04-19T16:39:23.539Z,14092
2018-04-19T16:40:33.374Z,17152
2018-04-19T16:41:43.120Z,18784
2018-04-19T16:42:52.964Z,17344
2018-04-19T16:44:02.971Z,16864
2018-04-19T16:45:12.466Z,16256
2018-04-19T16:46:22.219Z,14468
2018-04-19T16:47:32.493Z,17312
2018-04-19T16:48:42.554Z,17056
2018-04-19T16:49:52.032Z,18592
2018-04-19T16:51:02.055Z,22784
2018-04-19T16:52:11.813Z,23840
2018-04-19T16:53:21.553Z,19840
2018-04-19T16:54:31.571Z,16576
2018-04-19T16:55:41.687Z,19584
2018-04-19T16:56:51.177Z,20000
2018-04-19T16:58:01.209Z,16448
2018-04-19T16:59:11.065Z,17312
2018-04-19T17:00:20.867Z,18784
2018-04-19T17:01:30.341Z,16608
2018-04-19T17:02:39.555Z,15552
2018-04-19T17:03:49.305Z,15392
2018-04-19T17:04:59.314Z,15392
2018-04-19T17:06:09.019Z,14656
2018-04-19T17:07:19.040Z,13976
2018-04-19T17:08:28.795Z,13268
2018-04-19T17:09:38.273Z,12520
2018-04-19T17:10:48.028Z,12392
2018-04-19T17:11:57.776Z,14688
2018-04-19T17:13:07.784Z,12888
2018-04-19T17:14:17.532Z,12520
2018-04-19T17:15:27.276Z,13400
2018-04-19T17:16:37.025Z,16448
2018-04-19T17:17:47.071Z,15680
2018-04-19T17:18:57.096Z,16672
2018-04-19T17:20:06.389Z,16320
2018-04-19T17:21:16.578Z,23680
2018-04-19T17:22:26.326Z,23200
2018-04-19T17:23:36.077Z,20160
2018-04-19T17:24:45.823Z,22080
2018-04-19T17:25:55.843Z,22912
2018-04-19T17:27:05.857Z,22208
2018-04-19T17:28:15.334Z,21824
2018-04-19T17:29:25.449Z,17088
2018-04-19T17:30:34.949Z,12692
2018-04-19T17:31:44.433Z,14144
2018-04-19T17:32:54.447Z,14816
2018-04-19T17:34:04.196Z,11492
2018-04-19T17:35:13.944Z,9668
2018-04-19T17:36:23.715Z,12636
2018-04-19T17:37:33.203Z,15424
2018-04-19T17:38:43.221Z,13984
2018-04-19T17:39:53.232Z,11324
2018-04-19T17:41:02.989Z,10176
2018-04-19T17:42:13.005Z,7944
2018-04-19T17:43:23.021Z,7236
2018-04-19T17:44:32.765Z,6224
2018-04-19T17:45:42.516Z,5356
2018-04-19T17:46:52.528Z,4856
2018-04-19T17:48:02.353Z,4644
2018-04-19T17:49:12.512Z,4568
2018-04-19T17:50:22.254Z,4556
2018-04-19T17:51:32.285Z,4488
2018-04-19T17:52:41.761Z,4404
2018-04-19T17:53:51.944Z,4380
2018-04-19T17:55:01.957Z,4360
2018-04-19T17:56:11.443Z,4296
2018-04-19T17:57:20.653Z,4196
2018-04-19T17:58:30.455Z,4044
2018-04-19T17:59:39.937Z,3960
2018-04-19T18:00:49.965Z,3832
2018-04-19T18:01:59.980Z,3716
2018-04-19T18:03:09.461Z,3608
2018-04-19T18:04:19.215Z,3460
2018-04-19T18:05:28.965Z,3344
2018-04-19T18:06:38.442Z,3372
2018-04-19T18:07:48.459Z,3388
2018-04-19T18:08:57.937Z,3164
2018-04-19T18:10:07.678Z,3020
2018-04-19T18:11:17.419Z,2940
2018-04-19T18:12:27.435Z,2836
2018-04-19T18:13:37.453Z,2712
2018-04-19T18:14:47.206Z,2588
2018-04-19T18:15:57.232Z,2488
2018-04-19T18:17:07.255Z,2396
2018-04-19T18:18:17.267Z,2324
2018-04-19T18:19:27.290Z,2264
2018-04-19T18:20:37.324Z,2188
2018-04-19T18:21:47.342Z,2124
2018-04-19T18:22:57.467Z,2048
2018-04-19T18:24:07.218Z,1988
2018-04-19T18:25:17.233Z,1916